Time;durP1;ratioP1;P1;durP2;ratioP2;P2;SDS_P1;SDS_P2;PMS_P1;PMS_P2;Temp;Humidity;BMP_temperature;BMP_pressure;BME280_temperature;BME280_humidity;BME280_pressure;Samples;Min_cycle;Max_cycle;Signal;HPM_P1;HPM_P2
2023/01/15 00:00:59;;;;;;;3.05;0.08;;;;;;;4.38;100.00;99199.63;5056519;28;20093;-51
2023/01/15 00:03:25;;;;;;;5.38;0.50;;;;;;;4.41;100.00;99198.47;5051601;28;20513;-52
2023/01/15 00:05:50;;;;;;;0.60;0.08;;;;;;;4.27;100.00;99199.28;5056830;28;20081;-55
2023/01/15 00:08:16;;;;;;;11.65;1.83;;;;;;;4.27;100.00;99192.22;5053619;28;20044;-51
2023/01/15 00:10:41;;;;;;;0.57;0.00;;;;;;;4.32;100.00;99196.94;5056257;28;20028;-53
2023/01/15 00:13:06;;;;;;;7.53;0.50;;;;;;;4.11;100.00;99185.34;5055734;28;20024;-52
2023/01/15 00:15:32;;;;;;;0.57;0.00;;;;;;;3.88;100.00;99197.72;5050666;28;20029;-56
2023/01/15 00:17:57;;;;;;;0.55;0.00;;;;;;;3.78;100.00;99184.06;5047844;28;20103;-55
2023/01/15 00:20:23;;;;;;;3.65;0.20;;;;;;;3.68;100.00;99187.75;5051289;28;20017;-54
2023/01/15 00:22:48;;;;;;;11.65;1.60;;;;;;;3.61;100.00;99186.00;5054341;28;20048;-52
2023/01/15 00:27:57;;;;;;;13.35;4.70;;;;;;;3.60;100.00;99190.44;5053922;28;20036;-56
2023/01/15 00:30:23;;;;;;;11.43;2.33;;;;;;;3.55;100.00;99184.91;5048494;28;20508;-56
2023/01/15 00:32:49;;;;;;;3.83;1.95;;;;;;;3.54;100.00;99187.69;5052565;28;20029;-56
2023/01/15 00:35:18;;;;;;;8.55;0.73;;;;;;;3.55;100.00;99187.53;5055342;28;20482;-53
2023/01/15 00:37:44;;;;;;;4.13;0.55;;;;;;;3.57;100.00;99182.94;5054115;28;20386;-52
2023/01/15 00:40:11;;;;;;;3.35;0.52;;;;;;;3.50;100.00;99190.69;5051426;28;20024;-52
2023/01/15 00:42:36;;;;;;;0.00;0.00;;;;;;;3.42;100.00;99192.56;5049420;28;20024;-52
2023/01/15 00:45:08;;;;;;;0.75;0.30;;;;;;;3.37;100.00;99189.66;5048320;28;20509;-54
2023/01/15 00:47:38;;;;;;;2.40;0.15;;;;;;;3.43;100.00;99188.94;5050687;28;20140;-57
2023/01/15 00:50:06;;;;;;;0.60;0.10;;;;;;;3.56;100.00;99181.28;5053683;28;20028;-56
2023/01/15 00:52:32;;;;;;;0.70;0.10;;;;;;;3.56;100.00;99189.16;5049184;28;21035;-55
2023/01/15 00:54:57;;;;;;;18.70;2.50;;;;;;;3.66;100.00;99192.34;5051843;28;20107;-56
2023/01/15 00:57:23;;;;;;;1.05;0.00;;;;;;;3.78;100.00;99176.19;5050795;28;20048;-52
2023/01/15 00:59:48;;;;;;;1.40;0.90;;;;;;;3.70;100.00;99177.91;5055987;28;20624;-50
2023/01/15 01:02:13;;;;;;;0.35;0.35;;;;;;;3.85;100.00;99169.25;5053192;28;20439;-53
2023/01/15 01:04:39;;;;;;;0.95;0.00;;;;;;;3.86;100.00;99170.88;5053626;28;20052;-51
2023/01/15 01:07:04;;;;;;;3.75;0.20;;;;;;;3.80;100.00;99174.22;5057646;28;20070;-56
2023/01/15 01:09:29;;;;;;;1.83;0.52;;;;;;;3.91;100.00;99168.53;5051528;28;20078;-56
2023/01/15 01:11:55;;;;;;;4.97;0.30;;;;;;;3.91;100.00;99173.78;5057693;28;20521;-55
2023/01/15 01:14:20;;;;;;;1.80;0.15;;;;;;;3.90;100.00;99167.72;5051747;28;20039;-52
2023/01/15 01:16:45;;;;;;;1.70;0.90;;;;;;;3.81;100.00;99162.72;5052000;28;20059;-50
2023/01/15 01:19:14;;;;;;;2.58;1.08;;;;;;;3.78;100.00;99173.59;5053279;28;20033;-55
2023/01/15 01:21:42;;;;;;;1.60;0.10;;;;;;;3.71;100.00;99168.22;5053034;28;20024;-56
2023/01/15 01:24:10;;;;;;;0.25;0.03;;;;;;;3.85;100.00;99175.31;5054141;28;20042;-57
2023/01/15 01:26:35;;;;;;;8.32;0.60;;;;;;;3.80;100.00;99180.28;5054996;28;20388;-53
2023/01/15 01:29:01;;;;;;;4.32;0.05;;;;;;;3.79;100.00;99181.25;5052418;28;20037;-55
2023/01/15 01:31:27;;;;;;;4.00;0.22;;;;;;;3.65;100.00;99179.44;5063076;28;20473;-56
2023/01/15 01:33:55;;;;;;;3.60;0.85;;;;;;;3.67;100.00;99178.25;5053892;28;20507;-56
2023/01/15 01:36:27;;;;;;;3.00;0.20;;;;;;;3.59;100.00;99185.38;5059524;28;20060;-55
2023/01/15 01:38:52;;;;;;;5.25;0.32;;;;;;;3.59;100.00;99180.13;5051539;28;20103;-54
2023/01/15 01:41:18;;;;;;;4.22;0.60;;;;;;;3.59;100.00;99186.19;5057294;28;20031;-52
2023/01/15 01:43:58;;;;;;;3.08;0.20;;;;;;;3.63;100.00;99184.84;5056549;28;20037;-54
2023/01/15 01:46:26;;;;;;;2.80;0.22;;;;;;;3.80;100.00;99184.72;5058307;28;20328;-55
2023/01/15 01:48:56;;;;;;;0.85;0.30;;;;;;;3.71;100.00;99181.31;5055198;28;20383;-55
2023/01/15 01:51:26;;;;;;;2.65;1.40;;;;;;;3.66;100.00;99187.09;5057733;28;20078;-53
2023/01/15 01:53:52;;;;;;;2.22;0.28;;;;;;;3.66;100.00;99183.66;5052182;28;20528;-54
2023/01/15 01:56:18;;;;;;;4.07;1.65;;;;;;;3.59;100.00;99180.13;5051959;28;20094;-56
2023/01/15 01:58:48;;;;;;;3.20;0.30;;;;;;;3.51;100.00;99181.00;5056705;28;20052;-51
2023/01/15 02:01:14;;;;;;;1.83;0.22;;;;;;;3.44;100.00;99183.53;5054423;28;20489;-56
2023/01/15 02:03:40;;;;;;;5.18;0.43;;;;;;;3.50;100.00;99187.25;5057806;28;20104;-51
2023/01/15 02:06:08;;;;;;;5.68;0.50;;;;;;;3.56;100.00;99186.53;5059124;28;20044;-53
2023/01/15 02:08:34;;;;;;;1.65;0.22;;;;;;;3.61;100.00;99189.44;5055117;28;20082;-54
2023/01/15 02:11:00;;;;;;;1.77;0.10;;;;;;;3.72;100.00;99188.22;5057252;28;20091;-51
2023/01/15 02:13:58;;;;;;;2.28;0.30;;;;;;;3.91;100.00;99184.25;5054348;28;20424;-52
2023/01/15 02:16:50;;;;;;;9.43;0.38;;;;;;;3.74;100.00;99188.84;5033723;28;20482;-55
2023/01/15 02:19:27;;;;;;;0.32;0.20;;;;;;;3.91;100.00;99186.88;5053808;28;20028;-53
2023/01/15 02:22:39;;;;;;;0.80;0.10;;;;;;;3.80;100.00;99185.53;5061613;28;20043;-49
2023/01/15 02:25:10;;;;;;;6.65;0.10;;;;;;;3.57;100.00;99182.94;5052495;28;20041;-53
2023/01/15 02:27:38;;;;;;;4.93;0.10;;;;;;;3.49;100.00;99188.25;5050448;28;20351;-55
2023/01/15 02:30:20;;;;;;;0.38;0.08;;;;;;;3.42;100.00;99179.47;5055689;28;20082;-56
2023/01/15 02:32:52;;;;;;;0.93;0.00;;;;;;;3.37;100.00;99174.75;5052891;28;20570;-56
2023/01/15 02:35:23;;;;;;;2.58;0.25;;;;;;;3.24;100.00;99172.72;5051568;28;20045;-54
2023/01/15 02:37:53;;;;;;;7.00;0.32;;;;;;;3.26;100.00;99172.56;5058678;28;20021;-54
2023/01/15 02:40:21;;;;;;;6.50;0.30;;;;;;;3.23;100.00;99176.34;5050897;28;20033;-51
2023/01/15 02:42:48;;;;;;;1.17;0.30;;;;;;;3.20;100.00;99173.22;5053770;28;20024;-53
2023/01/15 02:45:23;;;;;;;1.85;0.20;;;;;;;3.06;100.00;99172.19;5065092;28;20103;-52
2023/01/15 02:47:51;;;;;;;1.90;0.10;;;;;;;3.06;100.00;99164.34;5059926;28;20112;-53
2023/01/15 02:50:21;;;;;;;1.70;1.60;;;;;;;3.04;100.00;99164.50;5052181;28;20103;-55
2023/01/15 02:52:52;;;;;;;2.60;0.10;;;;;;;3.05;100.00;99160.91;5054249;28;20302;-56
2023/01/15 02:55:25;;;;;;;0.52;0.10;;;;;;;3.10;100.00;99163.03;5056011;28;20024;-54
2023/01/15 02:57:55;;;;;;;2.38;0.55;;;;;;;3.31;100.00;99164.19;5062602;28;20036;-56
2023/01/15 03:00:23;;;;;;;3.00;0.52;;;;;;;3.24;100.00;99149.13;5059521;28;20033;-55
2023/01/15 03:02:57;;;;;;;1.98;0.10;;;;;;;3.05;100.00;99142.59;5058300;28;20713;-56
2023/01/15 03:05:32;;;;;;;7.07;0.60;;;;;;;2.95;100.00;99151.66;5059405;28;20102;-56
2023/01/15 03:08:04;;;;;;;1.17;0.65;;;;;;;2.94;100.00;99150.00;5062942;28;20029;-54
2023/01/15 03:10:46;;;;;;;0.10;0.10;;;;;;;2.81;100.00;99142.72;5061461;28;20031;-50
2023/01/15 03:13:22;;;;;;;1.15;0.28;;;;;;;2.78;100.00;99138.66;5057528;28;20489;-53
2023/01/15 03:19:26;;;;;;;1.65;0.25;;;;;;;3.06;100.00;99148.63;5055495;28;20051;-58
2023/01/15 03:22:14;;;;;;;8.40;0.20;;;;;;;2.94;100.00;99160.50;5023837;28;20748;-55
2023/01/15 03:24:59;;;;;;;2.60;0.00;;;;;;;3.04;100.00;99145.38;5016036;28;20080;-53
2023/01/15 03:27:26;;;;;;;3.50;0.10;;;;;;;2.95;100.00;99156.91;5047762;28;20129;-53
2023/01/15 03:30:02;;;;;;;2.78;0.20;;;;;;;2.87;100.00;99154.34;5056961;28;20029;-56
2023/01/15 03:32:30;;;;;;;1.13;0.00;;;;;;;2.87;100.00;99156.97;5067478;28;20071;-54
2023/01/15 03:34:55;;;;;;;0.40;0.08;;;;;;;2.80;100.00;99160.25;5054464;28;20356;-55
2023/01/15 03:37:24;;;;;;;3.47;0.17;;;;;;;2.77;100.00;99152.75;5068255;28;20097;-50
2023/01/15 03:39:51;;;;;;;0.43;0.38;;;;;;;2.76;100.00;99151.13;5060735;28;20060;-53
2023/01/15 03:42:43;;;;;;;3.55;0.05;;;;;;;2.80;100.00;99159.44;5058295;28;20032;-54
2023/01/15 03:45:11;;;;;;;1.63;0.10;;;;;;;2.84;100.00;99165.97;5063609;28;20390;-51
2023/01/15 03:48:19;;;;;;;1.65;0.10;;;;;;;2.91;100.00;99155.59;5058957;28;20510;-56
2023/01/15 03:50:47;;;;;;;0.28;0.10;;;;;;;2.87;100.00;99157.78;5054830;28;20089;-53
2023/01/15 03:53:29;;;;;;;3.83;0.17;;;;;;;2.88;100.00;99161.19;5058708;28;20072;-57
2023/01/15 03:56:23;;;;;;;2.53;0.17;;;;;;;2.79;100.00;99153.41;5056086;28;20025;-52
2023/01/15 03:58:58;;;;;;;5.55;0.63;;;;;;;2.93;100.00;99159.69;5060221;28;20520;-56
2023/01/15 04:01:30;;;;;;;7.28;0.30;;;;;;;3.16;100.00;99135.31;5060722;28;20101;-49
2023/01/15 04:03:58;;;;;;;3.85;0.85;;;;;;;3.19;100.00;99122.66;5062915;28;20033;-54
2023/01/15 04:06:25;;;;;;;0.82;0.10;;;;;;;3.35;100.00;99118.28;5065593;28;20029;-57
2023/01/15 04:08:51;;;;;;;2.90;0.13;;;;;;;3.32;100.00;99113.41;5060156;28;20497;-57
2023/01/15 04:11:23;;;;;;;6.00;0.00;;;;;;;3.28;100.00;99108.50;5066516;28;20048;-52
2023/01/15 04:13:49;;;;;;;0.90;0.28;;;;;;;3.29;100.00;99119.81;5053251;28;20484;-54
2023/01/15 04:16:20;;;;;;;1.48;0.10;;;;;;;3.39;100.00;99114.31;5063310;28;20028;-51
2023/01/15 04:18:45;;;;;;;0.57;0.00;;;;;;;3.47;100.00;99093.28;5057320;28;20028;-53
2023/01/15 04:21:10;;;;;;;2.60;0.10;;;;;;;3.43;100.00;99108.56;5063076;28;20037;-56
2023/01/15 04:23:36;;;;;;;0.63;0.00;;;;;;;3.41;100.00;99104.47;5059811;28;20025;-56
2023/01/15 04:26:01;;;;;;;0.00;0.00;;;;;;;3.35;100.00;99116.47;5063836;28;20371;-61
2023/01/15 04:28:26;;;;;;;1.90;0.10;;;;;;;3.41;100.00;99115.78;5056622;28;20040;-57
2023/01/15 04:30:55;;;;;;;0.22;0.13;;;;;;;3.51;100.00;99094.53;5056348;28;20028;-56
2023/01/15 04:33:20;;;;;;;0.45;0.10;;;;;;;3.65;100.00;99100.78;5067898;28;20029;-57
2023/01/15 04:35:46;;;;;;;2.92;0.03;;;;;;;3.60;100.00;99114.44;5069570;28;20020;-56
2023/01/15 04:38:11;;;;;;;1.98;0.30;;;;;;;3.61;100.00;99105.56;5066221;28;20042;-55
2023/01/15 04:46:04;;;;;;;0.65;0.20;;;;;;;3.65;100.00;99092.94;5060287;28;20384;-51
2023/01/15 04:48:30;;;;;;;3.63;0.00;;;;;;;3.82;100.00;99096.16;5064692;28;20045;-56
2023/01/15 04:50:55;;;;;;;0.95;0.00;;;;;;;3.68;100.00;99098.63;5062217;28;20636;-52
2023/01/15 04:53:21;;;;;;;3.22;0.10;;;;;;;3.63;100.00;99092.28;5066394;28;20288;-56
2023/01/15 04:55:46;;;;;;;1.52;0.00;;;;;;;3.62;100.00;99091.47;5059096;28;20100;-56
2023/01/15 04:58:11;;;;;;;0.28;0.10;;;;;;;3.69;100.00;99079.28;5059150;28;20045;-54
2023/01/15 05:00:37;;;;;;;2.95;0.95;;;;;;;3.61;100.00;99084.59;5060233;28;20082;-51
2023/01/15 05:03:02;;;;;;;2.72;0.10;;;;;;;3.64;100.00;99078.19;5066438;28;20029;-54
2023/01/15 05:05:27;;;;;;;0.85;0.00;;;;;;;3.53;100.00;99084.69;5066383;28;20043;-56
2023/01/15 05:07:53;;;;;;;3.30;0.10;;;;;;;3.49;100.00;99072.94;5061635;28;20480;-54
2023/01/15 05:10:18;;;;;;;11.80;0.57;;;;;;;3.49;100.00;99065.91;5059474;28;20042;-58
2023/01/15 05:12:43;;;;;;;0.50;0.50;;;;;;;3.53;100.00;99084.69;5062326;28;20157;-55
2023/01/15 05:15:09;;;;;;;2.30;0.50;;;;;;;3.56;100.00;99057.31;5062297;28;20451;-53
2023/01/15 05:17:34;;;;;;;1.08;1.00;;;;;;;3.57;100.00;99072.84;5067814;28;20041;-58
2023/01/15 05:19:59;;;;;;;1.45;0.10;;;;;;;3.58;100.00;99068.44;5056955;28;20033;-57
2023/01/15 05:22:25;;;;;;;1.00;0.20;;;;;;;3.57;100.00;99072.06;5058762;28;20539;-58
2023/01/15 05:24:50;;;;;;;0.20;0.10;;;;;;;3.69;100.00;99060.94;5053955;28;20032;-54
2023/01/15 05:27:16;;;;;;;3.20;0.28;;;;;;;3.79;100.00;99068.50;5057278;28;20391;-54
2023/01/15 05:29:41;;;;;;;1.80;0.20;;;;;;;3.74;100.00;99072.66;5065730;28;20043;-58
2023/01/15 05:32:06;;;;;;;7.68;2.40;;;;;;;3.63;100.00;99072.13;5056400;28;20070;-59
2023/01/15 05:34:32;;;;;;;2.53;0.00;;;;;;;3.63;100.00;99077.38;5066014;28;20024;-57
2023/01/15 05:36:57;;;;;;;0.90;0.00;;;;;;;3.52;100.00;99090.94;5064384;28;20418;-57
2023/01/15 05:39:22;;;;;;;3.63;0.00;;;;;;;3.61;100.00;99083.78;5065928;28;20069;-52
2023/01/15 05:41:48;;;;;;;2.42;0.35;;;;;;;3.77;100.00;99083.63;5055183;28;20025;-56
2023/01/15 05:44:15;;;;;;;1.23;0.00;;;;;;;3.99;100.00;99081.06;5065885;28;20048;-54
2023/01/15 05:46:42;;;;;;;1.67;0.00;;;;;;;4.11;100.00;99066.50;5050698;28;20475;-53
2023/01/15 05:49:10;;;;;;;5.38;0.45;;;;;;;4.02;100.00;99059.72;5062710;28;20135;-56
2023/01/15 05:51:36;;;;;;;0.60;0.15;;;;;;;4.11;100.00;99064.69;5059356;28;20132;-57
2023/01/15 05:54:03;;;;;;;4.28;0.10;;;;;;;4.14;100.00;99084.50;5061699;28;20028;-54
2023/01/15 05:56:29;;;;;;;0.68;0.00;;;;;;;4.15;100.00;99055.44;5061794;28;20033;-55
2023/01/15 05:58:54;;;;;;;3.60;0.00;;;;;;;3.99;100.00;99058.28;5063903;28;20499;-53
2023/01/15 06:01:20;;;;;;;1.95;0.47;;;;;;;3.93;100.00;99066.88;5061305;28;20534;-55
2023/01/15 06:03:47;;;;;;;3.72;0.28;;;;;;;3.87;100.00;99063.19;5060888;28;20037;-56
2023/01/15 06:06:14;;;;;;;1.08;0.00;;;;;;;3.81;100.00;99061.28;5074313;28;20024;-54
2023/01/15 06:08:40;;;;;;;0.20;0.00;;;;;;;3.88;100.00;99058.75;5061428;28;20378;-56
2023/01/15 06:11:06;;;;;;;4.20;0.15;;;;;;;3.97;100.00;99065.50;5067577;28;20095;-56
2023/01/15 06:13:32;;;;;;;1.17;0.00;;;;;;;4.02;100.00;99036.94;5061301;28;20115;-52
2023/01/15 06:15:58;;;;;;;3.13;2.45;;;;;;;4.07;100.00;99031.13;5060911;28;20411;-56
2023/01/15 06:18:24;;;;;;;5.68;0.35;;;;;;;3.98;100.00;99054.03;5057742;28;20021;-50
2023/01/15 06:20:49;;;;;;;0.70;0.00;;;;;;;3.91;100.00;99042.66;5061448;28;20497;-53
2023/01/15 06:23:16;;;;;;;2.92;0.00;;;;;;;3.84;100.00;99053.03;5059105;28;20032;-53
2023/01/15 06:25:41;;;;;;;1.27;0.08;;;;;;;3.76;100.00;99050.53;5061326;28;20044;-53
2023/01/15 06:28:07;;;;;;;1.55;0.00;;;;;;;3.58;100.00;99050.88;5060627;28;20013;-56
2023/01/15 06:30:33;;;;;;;0.00;0.00;;;;;;;3.52;100.00;99051.63;5071282;28;20162;-53
2023/01/15 06:32:59;;;;;;;0.10;0.00;;;;;;;3.52;100.00;99058.66;5064567;28;20028;-55
2023/01/15 06:35:25;;;;;;;3.03;0.20;;;;;;;3.48;100.00;99047.72;5059399;28;20628;-55
2023/01/15 06:37:51;;;;;;;1.95;0.20;;;;;;;3.41;100.00;99058.13;5069456;28;20032;-53
2023/01/15 06:40:16;;;;;;;1.75;0.68;;;;;;;3.43;100.00;99066.63;5067420;28;20392;-51
2023/01/15 06:48:19;;;;;;;5.00;0.28;;;;;;;3.37;100.00;99056.84;5062625;28;20508;-56
2023/01/15 06:50:45;;;;;;;4.05;0.10;;;;;;;3.35;100.00;99060.63;5078568;28;20036;-57
2023/01/15 06:53:10;;;;;;;4.63;0.15;;;;;;;3.44;100.00;99062.19;5070705;28;20049;-54
2023/01/15 06:55:35;;;;;;;0.75;0.63;;;;;;;3.32;100.00;99056.56;5064911;28;20024;-54
2023/01/15 06:58:04;;;;;;;6.82;0.32;;;;;;;3.45;100.00;99040.22;5067913;28;20080;-55
2023/01/15 07:00:30;;;;;;;1.15;0.22;;;;;;;3.44;100.00;99046.47;5063946;28;20028;-50
2023/01/15 07:02:58;;;;;;;2.08;0.13;;;;;;;3.39;100.00;99060.09;5072849;28;20029;-53
2023/01/15 07:05:23;;;;;;;0.60;0.00;;;;;;;3.48;100.00;99055.59;5063789;28;21108;-52
2023/01/15 07:07:48;;;;;;;4.47;0.30;;;;;;;3.63;100.00;99051.16;5055276;28;20033;-53
2023/01/15 07:10:14;;;;;;;3.63;0.00;;;;;;;3.79;100.00;99075.56;5057237;28;20155;-56
2023/01/15 07:12:39;;;;;;;4.90;0.55;;;;;;;3.82;100.00;99043.72;5059873;28;20416;-56
2023/01/15 07:15:04;;;;;;;0.60;0.00;;;;;;;3.89;100.00;99055.94;5055606;28;20518;-56
2023/01/15 07:17:30;;;;;;;0.10;0.05;;;;;;;3.81;100.00;99039.50;5056679;28;20025;-57
2023/01/15 07:19:55;;;;;;;5.07;0.10;;;;;;;3.82;100.00;99044.56;5065582;28;20028;-55
2023/01/15 07:22:20;;;;;;;0.75;0.10;;;;;;;3.66;100.00;99050.78;5056010;28;20025;-55
2023/01/15 07:24:46;;;;;;;0.40;0.00;;;;;;;3.84;100.00;99047.00;5057532;28;20485;-56
2023/01/15 07:27:11;;;;;;;4.28;0.10;;;;;;;3.89;100.00;99040.19;5064115;28;20035;-52
2023/01/15 07:29:36;;;;;;;1.45;0.10;;;;;;;3.87;100.00;99041.38;5060725;28;20033;-52
2023/01/15 07:32:02;;;;;;;1.70;0.20;;;;;;;3.67;100.00;99046.38;5066695;28;20025;-57
2023/01/15 07:34:28;;;;;;;2.85;0.10;;;;;;;3.75;100.00;99035.81;5071946;28;20028;-51
2023/01/15 07:36:53;;;;;;;1.52;0.22;;;;;;;3.67;100.00;99052.44;5070948;28;20028;-58
2023/01/15 07:39:18;;;;;;;7.25;0.20;;;;;;;3.74;100.00;99056.94;5062476;28;20398;-55
2023/01/15 07:50:02;;;;;;;5.00;0.40;;;;;;;4.06;100.00;99043.44;5063823;28;20046;-55
2023/01/15 07:52:28;;;;;;;4.72;0.43;;;;;;;4.05;100.00;99051.47;5068351;28;20038;-53
2023/01/15 07:54:53;;;;;;;6.18;0.03;;;;;;;4.06;100.00;99046.06;5056878;28;20028;-55
2023/01/15 07:57:20;;;;;;;2.53;0.08;;;;;;;4.05;100.00;99047.06;5058619;28;20041;-55
2023/01/15 07:59:46;;;;;;;0.85;0.43;;;;;;;3.92;100.00;99052.13;5056339;28;20444;-55
2023/01/15 08:02:12;;;;;;;9.35;0.40;;;;;;;3.81;100.00;99048.16;5054813;28;25689;-52
2023/01/15 08:04:37;;;;;;;3.10;0.25;;;;;;;3.81;100.00;99049.97;5054942;28;20475;-54
2023/01/15 08:07:04;;;;;;;0.32;0.03;;;;;;;3.93;100.00;99045.91;5057395;28;20033;-55
2023/01/15 08:09:30;;;;;;;1.50;0.10;;;;;;;3.96;100.00;99052.59;5056037;28;20059;-56
2023/01/15 08:17:25;;;;;;;1.00;0.05;;;;;;;4.09;100.00;99066.69;5057091;28;20048;-52
2023/01/15 08:19:51;;;;;;;1.50;0.10;;;;;;;4.15;100.00;99060.69;5063292;28;20510;-55
2023/01/15 08:22:16;;;;;;;3.53;0.20;;;;;;;4.19;100.00;99052.47;5052051;28;20143;-56
2023/01/15 08:24:41;;;;;;;10.50;0.65;;;;;;;4.14;100.00;99056.44;5057099;28;20071;-53
2023/01/15 08:27:07;;;;;;;0.10;0.00;;;;;;;4.17;100.00;99075.44;5053792;28;20127;-50
2023/01/15 08:29:32;;;;;;;2.53;0.30;;;;;;;4.32;100.00;99069.16;5053918;28;20028;-58
2023/01/15 08:31:57;;;;;;;12.68;0.40;;;;;;;4.33;100.00;99064.72;5059350;28;20046;-56
2023/01/15 08:34:23;;;;;;;2.55;0.20;;;;;;;4.40;100.00;99070.06;5056426;28;20088;-55
2023/01/15 08:36:48;;;;;;;5.75;1.02;;;;;;;4.56;100.00;99078.50;5050218;28;20072;-52
2023/01/15 08:39:14;;;;;;;2.65;0.20;;;;;;;4.62;100.00;99073.50;5060061;28;20025;-52
2023/01/15 08:41:40;;;;;;;4.65;0.22;;;;;;;4.57;100.00;99084.59;5051399;28;20127;-51
2023/01/15 08:44:05;;;;;;;0.85;0.15;;;;;;;4.59;100.00;99086.03;5048985;28;20033;-55
2023/01/15 08:46:30;;;;;;;6.38;0.57;;;;;;;4.59;100.00;99091.28;5056640;28;20457;-56
2023/01/15 08:48:56;;;;;;;1.40;0.25;;;;;;;4.69;100.00;99092.78;5059902;28;20542;-55
2023/01/15 08:51:21;;;;;;;1.00;0.10;;;;;;;4.84;100.00;99085.66;5056559;28;20025;-56
2023/01/15 08:53:46;;;;;;;0.73;0.30;;;;;;;4.81;100.00;99086.03;5052583;28;20021;-57
2023/01/15 08:56:17;;;;;;;6.07;2.10;;;;;;;4.75;100.00;99086.75;5054514;28;20052;-59
2023/01/15 08:58:42;;;;;;;2.17;0.20;;;;;;;4.84;100.00;99095.34;5052210;28;20021;-56
2023/01/15 09:01:10;;;;;;;3.83;0.60;;;;;;;4.92;100.00;99098.66;5052492;28;20524;-51
2023/01/15 09:03:37;;;;;;;5.07;0.45;;;;;;;4.92;100.00;99088.13;5055039;28;20441;-56
2023/01/15 09:06:04;;;;;;;4.80;0.47;;;;;;;4.99;100.00;99083.75;5054305;28;20028;-54
2023/01/15 09:08:30;;;;;;;6.22;1.65;;;;;;;5.14;100.00;99085.53;5054289;28;20055;-56
2023/01/15 09:10:57;;;;;;;4.05;0.25;;;;;;;5.23;100.00;99081.72;5052705;28;20148;-55
2023/01/15 09:13:23;;;;;;;7.07;0.43;;;;;;;5.29;100.00;99101.19;5059471;28;20045;-57
2023/01/15 09:15:48;;;;;;;5.03;1.63;;;;;;;5.33;100.00;99100.63;5054536;28;20032;-55
2023/01/15 09:18:17;;;;;;;2.13;0.63;;;;;;;5.37;100.00;99091.34;5052945;28;20028;-53
2023/01/15 09:20:43;;;;;;;4.35;0.30;;;;;;;5.50;100.00;99089.81;5053479;28;20087;-56
2023/01/15 09:23:09;;;;;;;6.03;0.20;;;;;;;5.50;100.00;99088.00;5052752;28;20429;-54
2023/01/15 09:25:34;;;;;;;3.25;0.25;;;;;;;5.73;100.00;99092.19;5054501;28;20025;-54
2023/01/15 09:27:59;;;;;;;3.13;0.15;;;;;;;5.94;100.00;99089.50;5050693;28;20029;-53
2023/01/15 09:30:25;;;;;;;2.30;0.22;;;;;;;5.90;100.00;99081.16;5057227;28;20028;-56
2023/01/15 09:32:50;;;;;;;2.33;0.43;;;;;;;5.79;100.00;99086.97;5062812;28;20024;-54
2023/01/15 09:35:16;;;;;;;1.70;0.45;;;;;;;5.84;100.00;99083.75;5063331;28;20523;-53
2023/01/15 09:37:41;;;;;;;1.27;0.40;;;;;;;5.96;100.00;99095.38;5069018;28;20162;-53
2023/01/15 09:40:29;;;;;;;0.95;0.65;;;;;;;5.92;100.00;99094.13;5055009;28;20024;-56
2023/01/15 09:43:02;;;;;;;4.63;0.22;;;;;;;5.93;100.00;99108.06;5045572;28;20112;-56
2023/01/15 09:45:41;;;;;;;3.55;0.60;;;;;;;6.20;100.00;99098.53;5057935;28;20052;-55
2023/01/15 09:48:46;;;;;;;5.68;0.20;;;;;;;6.28;100.00;99124.69;5053677;28;20040;-55
2023/01/15 09:51:41;;;;;;;5.53;0.17;;;;;;;6.23;100.00;99129.72;5045659;28;20048;-56
2023/01/15 09:54:31;;;;;;;0.25;0.20;;;;;;;6.41;100.00;99135.28;5039662;28;20045;-55
2023/01/15 09:56:56;;;;;;;2.75;0.28;;;;;;;6.49;100.00;99132.47;5049382;28;20420;-56
2023/01/15 09:59:45;;;;;;;1.30;0.00;;;;;;;6.53;100.00;99128.44;5052102;28;20126;-49
2023/01/15 10:02:24;;;;;;;1.45;0.40;;;;;;;6.66;100.00;99153.16;5050983;28;20041;-52
2023/01/15 10:04:56;;;;;;;4.05;1.58;;;;;;;6.75;100.00;99155.44;5051804;28;20424;-52
2023/01/15 10:07:31;;;;;;;4.57;1.85;;;;;;;6.74;100.00;99150.38;5054284;28;20502;-55
2023/01/15 10:10:02;;;;;;;3.97;0.70;;;;;;;6.72;100.00;99174.28;5056659;28;20119;-54
2023/01/15 10:12:35;;;;;;;4.43;1.95;;;;;;;6.62;100.00;99167.75;5055868;28;20021;-50
2023/01/15 10:15:12;;;;;;;10.50;1.48;;;;;;;6.64;100.00;99165.75;5055712;28;20021;-52
2023/01/15 10:17:49;;;;;;;4.47;1.08;;;;;;;6.60;100.00;99162.69;5050121;28;20040;-54
2023/01/15 10:20:32;;;;;;;2.92;1.70;;;;;;;6.86;100.00;99175.13;5056454;28;20037;-54
2023/01/15 10:23:15;;;;;;;5.97;1.48;;;;;;;7.02;100.00;99170.50;5065110;28;20032;-49
2023/01/15 10:25:53;;;;;;;4.18;1.10;;;;;;;7.17;100.00;99173.75;5066882;28;20522;-52
2023/01/15 10:28:27;;;;;;;0.82;0.10;;;;;;;7.24;100.00;99168.50;5060685;28;20043;-55
2023/01/15 10:30:55;;;;;;;4.47;0.40;;;;;;;7.32;100.00;99184.13;5066450;28;20060;-53
2023/01/15 10:33:46;;;;;;;14.85;0.25;;;;;;;7.16;100.00;99194.06;5065072;28;20077;-54
2023/01/15 10:36:27;;;;;;;3.28;1.15;;;;;;;7.28;100.00;99185.53;5056777;28;20033;-53
2023/01/15 10:39:34;;;;;;;2.65;0.57;;;;;;;7.41;100.00;99175.84;5062050;28;20033;-51
2023/01/15 10:42:31;;;;;;;5.68;0.75;;;;;;;7.35;100.00;99191.63;5043123;28;20028;-52
2023/01/15 10:45:29;;;;;;;5.47;0.43;;;;;;;7.41;100.00;99198.75;5054464;28;20063;-51
2023/01/15 10:48:04;;;;;;;3.15;0.22;;;;;;;7.46;100.00;99182.31;5054478;28;20048;-54
2023/01/15 10:50:31;;;;;;;9.48;1.75;;;;;;;7.51;100.00;99193.06;5056763;28;20033;-55
2023/01/15 10:53:13;;;;;;;6.43;0.65;;;;;;;7.51;100.00;99191.25;5055617;28;20425;-53
2023/01/15 10:55:45;;;;;;;6.18;0.82;;;;;;;7.48;100.00;99194.28;5058495;28;20482;-54
2023/01/15 10:58:39;;;;;;;1.33;0.25;;;;;;;7.47;100.00;99194.50;5053363;28;20098;-57
2023/01/15 11:01:26;;;;;;;6.95;0.77;;;;;;;7.32;100.00;99187.56;5056874;28;20394;-54
2023/01/15 11:03:52;;;;;;;5.10;0.52;;;;;;;7.16;100.00;99180.06;5055100;28;20047;-57
2023/01/15 11:06:20;;;;;;;6.63;1.23;;;;;;;7.04;100.00;99194.84;5066414;28;20135;-52
2023/01/15 11:08:53;;;;;;;8.30;0.68;;;;;;;7.31;100.00;99178.06;5068192;28;20041;-55
2023/01/15 11:19:36;;;;;;;1.98;0.10;;;;;;;7.10;100.00;99183.47;5058557;28;20025;-55
2023/01/15 11:22:12;;;;;;;1.02;0.10;;;;;;;7.38;100.00;99178.88;5055658;28;20056;-52
2023/01/15 11:24:52;;;;;;;3.78;0.75;;;;;;;7.57;100.00;99177.25;5054241;28;20024;-55
2023/01/15 11:27:22;;;;;;;2.85;0.10;;;;;;;7.60;100.00;99170.75;5061166;28;20029;-51
2023/01/15 11:29:53;;;;;;;4.95;1.00;;;;;;;7.60;100.00;99176.84;5055748;28;20036;-52
2023/01/15 11:32:39;;;;;;;2.03;0.17;;;;;;;7.73;100.00;99176.03;5056303;28;20064;-52
2023/01/15 11:35:07;;;;;;;1.05;0.22;;;;;;;7.74;100.00;99180.28;5061801;28;20530;-54
2023/01/15 11:37:33;;;;;;;1.90;0.40;;;;;;;7.83;100.00;99180.91;5057660;28;20036;-51
2023/01/15 11:40:06;;;;;;;1.60;0.00;;;;;;;7.89;100.00;99177.44;5064070;28;20055;-52
2023/01/15 11:51:34;;;;;;;6.22;0.50;;;;;;;7.97;100.00;99176.41;5053534;28;20075;-52
2023/01/15 11:54:07;;;;;;;1.40;0.50;;;;;;;7.95;100.00;99178.44;5054887;28;20540;-55
2023/01/15 11:56:34;;;;;;;4.25;0.30;;;;;;;8.25;100.00;99176.13;5053999;28;20029;-56
2023/01/15 11:59:03;;;;;;;2.30;0.32;;;;;;;8.17;100.00;99179.00;5058278;28;20033;-49
2023/01/15 12:01:40;;;;;;;3.67;0.57;;;;;;;8.21;100.00;99159.06;5060035;28;20048;-56
2023/01/15 12:04:46;;;;;;;4.72;1.20;;;;;;;8.40;100.00;99160.06;5063213;28;20044;-52
2023/01/15 12:07:13;;;;;;;2.75;0.85;;;;;;;8.34;100.00;99150.28;5054773;28;20101;-55
2023/01/15 12:10:04;;;;;;;4.75;0.50;;;;;;;8.13;100.00;99161.94;5056671;28;20025;-55
2023/01/15 12:12:32;;;;;;;1.83;0.57;;;;;;;7.88;100.00;99162.63;5055025;28;20040;-52
2023/01/15 12:15:29;;;;;;;4.32;0.57;;;;;;;7.76;100.00;99158.97;5050974;28;20480;-53
2023/01/15 12:18:16;;;;;;;1.30;0.10;;;;;;;7.54;100.00;99147.84;5064697;28;20020;-51
2023/01/15 12:21:00;;;;;;;6.15;1.65;;;;;;;7.68;100.00;99143.34;5056375;28;20747;-54
2023/01/15 12:23:53;;;;;;;3.58;0.38;;;;;;;7.86;100.00;99143.53;5055196;28;20054;-56
2023/01/15 12:26:32;;;;;;;4.13;1.08;;;;;;;7.86;100.00;99148.81;5055131;28;20800;-50
2023/01/15 12:29:16;;;;;;;3.53;0.20;;;;;;;7.98;100.00;99151.66;5062381;28;20114;-55
2023/01/15 12:31:47;;;;;;;2.58;1.65;;;;;;;7.97;100.00;99142.88;5067825;28;20028;-52
2023/01/15 12:34:28;;;;;;;;;;;;;;;8.06;100.00;99136.38;5061017;28;20025;-56
2023/01/15 12:37:02;;;;;;;1.27;0.20;;;;;;;8.01;100.00;99130.91;5061049;28;19920;-51